sensor_id;sensor_type;location;lat;lon;timestamp;pressure;altitude;pressure_sealevel;temperature;humidity
42771;BME280;28426;42.872;25.314;2022-11-20T00:00:03;96444.09;;;14.35;83.75
42771;BME280;28426;42.872;25.314;2022-11-20T00:02:37;96433.97;;;14.37;84.41
42771;BME280;28426;42.872;25.314;2022-11-20T00:05:08;96438.44;;;14.25;88.61
42771;BME280;28426;42.872;25.314;2022-11-20T00:07:39;96425.09;;;14.18;85.92
42771;BME280;28426;42.872;25.314;2022-11-20T00:10:09;96436.00;;;14.05;88.71
42771;BME280;28426;42.872;25.314;2022-11-20T00:12:40;96429.00;;;14.04;87.09
42771;BME280;28426;42.872;25.314;2022-11-20T00:15:10;96436.50;;;13.95;83.78
42771;BME280;28426;42.872;25.314;2022-11-20T00:17:44;96435.84;;;13.81;83.69
42771;BME280;28426;42.872;25.314;2022-11-20T00:20:14;96427.75;;;13.62;85.63
42771;BME280;28426;42.872;25.314;2022-11-20T00:22:45;96412.94;;;13.59;88.16
42771;BME280;28426;42.872;25.314;2022-11-20T00:25:16;96421.94;;;13.65;87.64
42771;BME280;28426;42.872;25.314;2022-11-20T00:27:46;96416.53;;;13.72;89.42
42771;BME280;28426;42.872;25.314;2022-11-20T00:30:18;96416.75;;;13.70;88.54
42771;BME280;28426;42.872;25.314;2022-11-20T00:32:51;96424.72;;;13.77;90.12
42771;BME280;28426;42.872;25.314;2022-11-20T00:35:22;96417.94;;;13.75;88.67
42771;BME280;28426;42.872;25.314;2022-11-20T00:37:52;96406.63;;;13.72;89.98
42771;BME280;28426;42.872;25.314;2022-11-20T00:40:23;96423.44;;;13.80;90.07
42771;BME280;28426;42.872;25.314;2022-11-20T00:42:53;96408.56;;;13.84;89.71
42771;BME280;28426;42.872;25.314;2022-11-20T00:45:24;96414.06;;;13.89;88.90
42771;BME280;28426;42.872;25.314;2022-11-20T00:47:57;96400.59;;;13.96;88.44
42771;BME280;28426;42.872;25.314;2022-11-20T00:50:27;96403.19;;;14.03;87.73
42771;BME280;28426;42.872;25.314;2022-11-20T00:52:58;96401.25;;;14.10;87.21
42771;BME280;28426;42.872;25.314;2022-11-20T00:55:28;96409.00;;;14.18;86.75
42771;BME280;28426;42.872;25.314;2022-11-20T00:57:59;96412.19;;;14.27;86.31
42771;BME280;28426;42.872;25.314;2022-11-20T01:00:31;96420.75;;;14.36;85.84
42771;BME280;28426;42.872;25.314;2022-11-20T01:03:04;96423.72;;;14.46;85.01
42771;BME280;28426;42.872;25.314;2022-11-20T01:05:35;96426.91;;;14.55;84.76
42771;BME280;28426;42.872;25.314;2022-11-20T01:08:05;96425.78;;;14.63;84.47
42771;BME280;28426;42.872;25.314;2022-11-20T01:10:36;96431.84;;;14.70;84.02
42771;BME280;28426;42.872;25.314;2022-11-20T01:13:07;96416.91;;;14.74;83.60
42771;BME280;28426;42.872;25.314;2022-11-20T01:15:52;96405.31;;;14.81;83.23
42771;BME280;28426;42.872;25.314;2022-11-20T01:18:25;96402.16;;;14.84;82.66
42771;BME280;28426;42.872;25.314;2022-11-20T01:20:55;96400.88;;;14.86;82.93
42771;BME280;28426;42.872;25.314;2022-11-20T01:23:34;96383.72;;;14.87;82.40
42771;BME280;28426;42.872;25.314;2022-11-20T01:26:07;96366.78;;;14.87;81.99
42771;BME280;28426;42.872;25.314;2022-11-20T01:28:39;96359.56;;;14.87;82.12
42771;BME280;28426;42.872;25.314;2022-11-20T01:31:12;96330.00;;;14.87;81.40
42771;BME280;28426;42.872;25.314;2022-11-20T01:33:47;96344.22;;;14.88;81.60
42771;BME280;28426;42.872;25.314;2022-11-20T01:36:20;96332.47;;;14.89;81.35
42771;BME280;28426;42.872;25.314;2022-11-20T01:38:51;96333.25;;;14.89;81.67
42771;BME280;28426;42.872;25.314;2022-11-20T01:41:23;96335.72;;;14.91;81.05
42771;BME280;28426;42.872;25.314;2022-11-20T01:44:06;96340.88;;;14.93;80.68
42771;BME280;28426;42.872;25.314;2022-11-20T01:46:39;96350.56;;;14.94;80.59
42771;BME280;28426;42.872;25.314;2022-11-20T01:49:18;96343.56;;;14.93;80.60
42771;BME280;28426;42.872;25.314;2022-11-20T01:51:52;96358.84;;;14.92;80.60
42771;BME280;28426;42.872;25.314;2022-11-20T01:54:28;96358.28;;;14.90;80.48
42771;BME280;28426;42.872;25.314;2022-11-20T01:57:00;96351.50;;;14.87;80.48
42771;BME280;28426;42.872;25.314;2022-11-20T01:59:32;96366.22;;;14.85;80.30
42771;BME280;28426;42.872;25.314;2022-11-20T02:02:03;96369.13;;;14.83;80.34
42771;BME280;28426;42.872;25.314;2022-11-20T02:04:37;96368.50;;;14.81;80.23
42771;BME280;28426;42.872;25.314;2022-11-20T02:07:08;96367.09;;;14.78;80.41
42771;BME280;28426;42.872;25.314;2022-11-20T02:09:39;96371.44;;;14.80;80.16
42771;BME280;28426;42.872;25.314;2022-11-20T02:12:09;96363.63;;;14.78;80.10
42771;BME280;28426;42.872;25.314;2022-11-20T02:15:20;96365.47;;;14.77;80.30
42771;BME280;28426;42.872;25.314;2022-11-20T02:17:55;96381.59;;;14.77;79.84
42771;BME280;28426;42.872;25.314;2022-11-20T02:20:28;96385.91;;;14.78;80.01
42771;BME280;28426;42.872;25.314;2022-11-20T02:23:02;96393.38;;;14.76;80.20
42771;BME280;28426;42.872;25.314;2022-11-20T02:25:38;96389.28;;;14.74;80.14
42771;BME280;28426;42.872;25.314;2022-11-20T02:28:10;96392.19;;;14.72;80.22
42771;BME280;28426;42.872;25.314;2022-11-20T02:30:40;96379.41;;;14.68;79.75
42771;BME280;28426;42.872;25.314;2022-11-20T02:33:11;96374.75;;;14.63;79.88
42771;BME280;28426;42.872;25.314;2022-11-20T02:35:44;96371.69;;;14.59;79.96
42771;BME280;28426;42.872;25.314;2022-11-20T02:38:16;96367.59;;;14.57;80.10
42771;BME280;28426;42.872;25.314;2022-11-20T02:40:49;96343.78;;;14.48;80.37
42771;BME280;28426;42.872;25.314;2022-11-20T02:43:22;96346.38;;;14.55;80.17
42771;BME280;28426;42.872;25.314;2022-11-20T02:45:53;96348.22;;;14.55;80.13
42771;BME280;28426;42.872;25.314;2022-11-20T02:48:24;96340.19;;;14.55;80.16
42771;BME280;28426;42.872;25.314;2022-11-20T02:51:00;96341.59;;;14.57;80.39
42771;BME280;28426;42.872;25.314;2022-11-20T02:53:31;96327.09;;;14.58;80.28
42771;BME280;28426;42.872;25.314;2022-11-20T02:56:05;96332.25;;;14.60;80.17
42771;BME280;28426;42.872;25.314;2022-11-20T02:58:35;96331.19;;;14.61;80.37
42771;BME280;28426;42.872;25.314;2022-11-20T03:01:06;96335.75;;;14.60;80.28
42771;BME280;28426;42.872;25.314;2022-11-20T03:03:37;96336.56;;;14.61;80.32
42771;BME280;28426;42.872;25.314;2022-11-20T03:06:07;96325.38;;;14.64;80.36
42771;BME280;28426;42.872;25.314;2022-11-20T03:08:38;96321.63;;;14.65;80.32
42771;BME280;28426;42.872;25.314;2022-11-20T03:11:11;96322.00;;;14.69;79.83
42771;BME280;28426;42.872;25.314;2022-11-20T03:13:42;96330.19;;;14.74;79.99
42771;BME280;28426;42.872;25.314;2022-11-20T03:16:15;96307.44;;;14.76;79.71
42771;BME280;28426;42.872;25.314;2022-11-20T03:18:46;96317.47;;;14.81;79.84
42771;BME280;28426;42.872;25.314;2022-11-20T03:21:17;96324.25;;;14.84;79.52
42771;BME280;28426;42.872;25.314;2022-11-20T03:23:47;96327.53;;;14.86;79.38
42771;BME280;28426;42.872;25.314;2022-11-20T03:26:23;96332.47;;;14.89;78.95
42771;BME280;28426;42.872;25.314;2022-11-20T03:28:56;96325.22;;;14.89;79.04
42771;BME280;28426;42.872;25.314;2022-11-20T03:31:28;96326.59;;;14.92;79.07
42771;BME280;28426;42.872;25.314;2022-11-20T03:33:59;96315.63;;;14.94;78.69
42771;BME280;28426;42.872;25.314;2022-11-20T03:36:31;96312.94;;;14.94;78.34
42771;BME280;28426;42.872;25.314;2022-11-20T03:39:02;96311.88;;;14.95;78.45
42771;BME280;28426;42.872;25.314;2022-11-20T03:41:40;96315.41;;;14.95;78.44
42771;BME280;28426;42.872;25.314;2022-11-20T03:44:11;96319.94;;;14.95;78.10
42771;BME280;28426;42.872;25.314;2022-11-20T03:46:42;96324.53;;;14.94;78.42
42771;BME280;28426;42.872;25.314;2022-11-20T03:49:13;96334.44;;;14.94;78.03
42771;BME280;28426;42.872;25.314;2022-11-20T03:51:43;96329.78;;;14.89;78.37
42771;BME280;28426;42.872;25.314;2022-11-20T03:54:14;96342.38;;;14.88;78.18
42771;BME280;28426;42.872;25.314;2022-11-20T03:56:48;96345.28;;;14.87;78.20
42771;BME280;28426;42.872;25.314;2022-11-20T03:59:18;96346.34;;;14.86;77.98
42771;BME280;28426;42.872;25.314;2022-11-20T04:01:49;96349.03;;;14.86;77.99
42771;BME280;28426;42.872;25.314;2022-11-20T04:04:20;96347.03;;;14.81;77.77
42771;BME280;28426;42.872;25.314;2022-11-20T04:06:50;96358.59;;;14.82;77.96
42771;BME280;28426;42.872;25.314;2022-11-20T04:09:21;96358.59;;;14.82;78.01
42771;BME280;28426;42.872;25.314;2022-11-20T04:11:54;96356.13;;;14.80;77.79
42771;BME280;28426;42.872;25.314;2022-11-20T04:14:25;96364.66;;;14.77;77.83
42771;BME280;28426;42.872;25.314;2022-11-20T04:16:55;96358.06;;;14.73;77.71
42771;BME280;28426;42.872;25.314;2022-11-20T04:19:26;96353.19;;;14.70;77.69
42771;BME280;28426;42.872;25.314;2022-11-20T04:21:56;96361.91;;;14.65;77.98
42771;BME280;28426;42.872;25.314;2022-11-20T04:24:27;96349.19;;;14.60;78.03
42771;BME280;28426;42.872;25.314;2022-11-20T04:27:00;96346.13;;;14.57;77.94
42771;BME280;28426;42.872;25.314;2022-11-20T04:29:31;96344.94;;;14.52;77.94
42771;BME280;28426;42.872;25.314;2022-11-20T04:32:01;96352.88;;;14.47;78.07
42771;BME280;28426;42.872;25.314;2022-11-20T04:34:32;96357.06;;;14.43;77.87
42771;BME280;28426;42.872;25.314;2022-11-20T04:37:03;96348.06;;;14.37;78.09
42771;BME280;28426;42.872;25.314;2022-11-20T04:39:33;96350.00;;;14.30;78.38
42771;BME280;28426;42.872;25.314;2022-11-20T04:42:08;96341.63;;;14.27;78.26
42771;BME280;28426;42.872;25.314;2022-11-20T04:44:51;96332.94;;;14.24;78.39
42771;BME280;28426;42.872;25.314;2022-11-20T04:47:22;96325.97;;;14.23;78.49
42771;BME280;28426;42.872;25.314;2022-11-20T04:49:53;96324.69;;;14.26;78.60
42771;BME280;28426;42.872;25.314;2022-11-20T04:52:24;96306.84;;;14.32;78.94
42771;BME280;28426;42.872;25.314;2022-11-20T04:54:55;96309.66;;;14.37;78.68
42771;BME280;28426;42.872;25.314;2022-11-20T04:57:28;96312.03;;;14.45;78.26
42771;BME280;28426;42.872;25.314;2022-11-20T04:59:58;96316.47;;;14.51;77.86
42771;BME280;28426;42.872;25.314;2022-11-20T05:02:30;96317.41;;;14.57;77.14
42771;BME280;28426;42.872;25.314;2022-11-20T05:05:01;96317.09;;;14.65;77.28
42771;BME280;28426;42.872;25.314;2022-11-20T05:07:31;96315.34;;;14.71;77.36
42771;BME280;28426;42.872;25.314;2022-11-20T05:10:03;96318.19;;;14.76;76.93
42771;BME280;28426;42.872;25.314;2022-11-20T05:12:36;96307.56;;;14.82;76.64
42771;BME280;28426;42.872;25.314;2022-11-20T05:15:07;96306.28;;;14.84;76.83
42771;BME280;28426;42.872;25.314;2022-11-20T05:17:38;96306.06;;;14.86;76.45
42771;BME280;28426;42.872;25.314;2022-11-20T05:20:10;96313.88;;;14.87;76.14
42771;BME280;28426;42.872;25.314;2022-11-20T05:22:41;96316.34;;;14.89;76.02
42771;BME280;28426;42.872;25.314;2022-11-20T05:25:12;96323.13;;;14.92;76.13
42771;BME280;28426;42.872;25.314;2022-11-20T05:27:45;96319.16;;;14.94;75.70
42771;BME280;28426;42.872;25.314;2022-11-20T05:30:16;96316.22;;;14.96;75.93
42771;BME280;28426;42.872;25.314;2022-11-20T05:32:46;96315.19;;;14.97;75.46
42771;BME280;28426;42.872;25.314;2022-11-20T05:35:17;96314.13;;;14.98;75.11
42771;BME280;28426;42.872;25.314;2022-11-20T05:37:47;96325.69;;;14.98;75.31
42771;BME280;28426;42.872;25.314;2022-11-20T05:40:18;96311.09;;;14.94;75.04
42771;BME280;28426;42.872;25.314;2022-11-20T05:42:51;96318.22;;;15.00;75.07
42771;BME280;28426;42.872;25.314;2022-11-20T05:45:22;96329.78;;;15.01;74.93
42771;BME280;28426;42.872;25.314;2022-11-20T05:47:53;96331.63;;;15.00;74.92
42771;BME280;28426;42.872;25.314;2022-11-20T05:50:23;96335.16;;;15.01;74.65
42771;BME280;28426;42.872;25.314;2022-11-20T05:52:54;96337.25;;;14.99;74.55
42771;BME280;28426;42.872;25.314;2022-11-20T05:55:24;96342.38;;;15.00;74.37
42771;BME280;28426;42.872;25.314;2022-11-20T05:57:58;96345.06;;;15.00;74.38
42771;BME280;28426;42.872;25.314;2022-11-20T06:00:28;96343.78;;;15.03;74.20
42771;BME280;28426;42.872;25.314;2022-11-20T06:02:59;96366.09;;;15.03;74.17
42771;BME280;28426;42.872;25.314;2022-11-20T06:05:29;96361.09;;;15.07;73.75
42771;BME280;28426;42.872;25.314;2022-11-20T06:08:00;96363.09;;;15.12;73.62
42771;BME280;28426;42.872;25.314;2022-11-20T06:10:31;96369.63;;;15.16;73.01
42771;BME280;28426;42.872;25.314;2022-11-20T06:13:04;96369.53;;;15.23;73.55
42771;BME280;28426;42.872;25.314;2022-11-20T06:15:35;96362.97;;;15.30;73.27
42771;BME280;28426;42.872;25.314;2022-11-20T06:18:06;96368.81;;;15.39;73.36
42771;BME280;28426;42.872;25.314;2022-11-20T06:20:36;96364.94;;;15.47;73.16
42771;BME280;28426;42.872;25.314;2022-11-20T06:23:08;96367.50;;;15.54;73.23
42771;BME280;28426;42.872;25.314;2022-11-20T06:25:39;96366.81;;;15.59;72.57
42771;BME280;28426;42.872;25.314;2022-11-20T06:28:12;96369.16;;;15.67;72.08
42771;BME280;28426;42.872;25.314;2022-11-20T06:30:45;96371.72;;;15.74;72.21
42771;BME280;28426;42.872;25.314;2022-11-20T06:33:16;96376.38;;;15.78;72.02
42771;BME280;28426;42.872;25.314;2022-11-20T06:35:46;96379.97;;;15.84;71.78
42771;BME280;28426;42.872;25.314;2022-11-20T06:38:23;96372.84;;;15.90;71.65
42771;BME280;28426;42.872;25.314;2022-11-20T06:40:54;96381.03;;;15.95;71.62
42771;BME280;28426;42.872;25.314;2022-11-20T06:43:28;96384.66;;;16.01;70.79
42771;BME280;28426;42.872;25.314;2022-11-20T06:45:59;96387.22;;;16.07;70.75
42771;BME280;28426;42.872;25.314;2022-11-20T06:48:30;96386.84;;;16.16;70.86
42771;BME280;28426;42.872;25.314;2022-11-20T06:51:03;96401.66;;;16.30;70.99
42771;BME280;28426;42.872;25.314;2022-11-20T06:53:34;96409.00;;;16.47;70.93
42771;BME280;28426;42.872;25.314;2022-11-20T06:56:05;96419.06;;;16.69;70.57
42771;BME280;28426;42.872;25.314;2022-11-20T06:58:39;96421.44;;;16.94;69.96
42771;BME280;28426;42.872;25.314;2022-11-20T07:01:11;96419.75;;;17.22;70.10
42771;BME280;28426;42.872;25.314;2022-11-20T07:03:42;96432.34;;;17.51;69.15
42771;BME280;28426;42.872;25.314;2022-11-20T07:06:20;96436.22;;;17.77;67.81
42771;BME280;28426;42.872;25.314;2022-11-20T07:08:51;96439.28;;;18.03;67.11
42771;BME280;28426;42.872;25.314;2022-11-20T07:11:22;96436.31;;;18.22;64.98
42771;BME280;28426;42.872;25.314;2022-11-20T07:13:56;96442.34;;;18.29;62.72
42771;BME280;28426;42.872;25.314;2022-11-20T07:16:27;96445.59;;;18.32;63.63
42771;BME280;28426;42.872;25.314;2022-11-20T07:18:58;96462.28;;;18.28;63.73
42771;BME280;28426;42.872;25.314;2022-11-20T07:21:28;96446.84;;;18.24;63.82
42771;BME280;28426;42.872;25.314;2022-11-20T07:23:59;96443.28;;;18.18;63.32
42771;BME280;28426;42.872;25.314;2022-11-20T07:26:29;96443.69;;;18.10;63.73
42771;BME280;28426;42.872;25.314;2022-11-20T07:29:02;96437.66;;;18.02;63.65
42771;BME280;28426;42.872;25.314;2022-11-20T07:31:33;96444.88;;;17.97;63.85
42771;BME280;28426;42.872;25.314;2022-11-20T07:34:04;96438.00;;;17.89;64.16
42771;BME280;28426;42.872;25.314;2022-11-20T07:36:34;96433.91;;;17.86;64.64
42771;BME280;28426;42.872;25.314;2022-11-20T07:39:05;96433.91;;;17.86;64.56
42771;BME280;28426;42.872;25.314;2022-11-20T07:41:36;96429.09;;;17.88;64.59
42771;BME280;28426;42.872;25.314;2022-11-20T07:44:09;96433.72;;;17.93;65.10
42771;BME280;28426;42.872;25.314;2022-11-20T07:46:39;96425.72;;;17.98;64.29
42771;BME280;28426;42.872;25.314;2022-11-20T07:49:10;96428.25;;;18.05;61.90
42771;BME280;28426;42.872;25.314;2022-11-20T07:51:40;96442.91;;;18.09;61.36
42771;BME280;28426;42.872;25.314;2022-11-20T07:54:16;96451.56;;;18.11;61.01
42771;BME280;28426;42.872;25.314;2022-11-20T07:56:47;96466.19;;;18.15;60.37
42771;BME280;28426;42.872;25.314;2022-11-20T07:59:20;96461.88;;;18.14;57.56
42771;BME280;28426;42.872;25.314;2022-11-20T08:01:51;96468.81;;;18.10;57.63
42771;BME280;28426;42.872;25.314;2022-11-20T08:04:21;96478.94;;;18.03;56.26
42771;BME280;28426;42.872;25.314;2022-11-20T08:06:52;96505.31;;;17.96;56.58
42771;BME280;28426;42.872;25.314;2022-11-20T08:09:23;96496.97;;;17.80;55.45
42771;BME280;28426;42.872;25.314;2022-11-20T08:11:54;96495.69;;;17.65;55.45
42771;BME280;28426;42.872;25.314;2022-11-20T08:14:39;96491.84;;;17.44;54.90
42771;BME280;28426;42.872;25.314;2022-11-20T08:17:10;96497.13;;;17.22;55.15
42771;BME280;28426;42.872;25.314;2022-11-20T08:19:40;96493.78;;;17.03;55.29
42771;BME280;28426;42.872;25.314;2022-11-20T08:22:11;96498.06;;;16.86;55.69
42771;BME280;28426;42.872;25.314;2022-11-20T08:24:41;96505.03;;;16.70;55.55
42771;BME280;28426;42.872;25.314;2022-11-20T08:27:12;96497.97;;;16.52;55.88
42771;BME280;28426;42.872;25.314;2022-11-20T08:29:45;96496.94;;;16.41;56.57
42771;BME280;28426;42.872;25.314;2022-11-20T08:32:16;96494.84;;;16.31;56.94
42771;BME280;28426;42.872;25.314;2022-11-20T08:34:46;96500.00;;;16.21;57.04
42771;BME280;28426;42.872;25.314;2022-11-20T08:37:17;96497.66;;;16.13;57.36
42771;BME280;28426;42.872;25.314;2022-11-20T08:39:47;96489.97;;;16.04;57.06
42771;BME280;28426;42.872;25.314;2022-11-20T08:42:18;96482.69;;;15.93;57.33
42771;BME280;28426;42.872;25.314;2022-11-20T08:44:51;96485.84;;;15.78;56.98
42771;BME280;28426;42.872;25.314;2022-11-20T08:47:22;96473.91;;;15.62;57.04
42771;BME280;28426;42.872;25.314;2022-11-20T08:49:52;96479.75;;;15.47;57.25
42771;BME280;28426;42.872;25.314;2022-11-20T08:52:23;96483.94;;;15.30;57.29
42771;BME280;28426;42.872;25.314;2022-11-20T08:54:53;96477.34;;;15.14;57.47
42771;BME280;28426;42.872;25.314;2022-11-20T08:57:24;96474.63;;;15.02;58.15
42771;BME280;28426;42.872;25.314;2022-11-20T08:59:57;96474.97;;;14.94;58.46
42771;BME280;28426;42.872;25.314;2022-11-20T09:02:32;96475.84;;;14.88;58.93
42771;BME280;28426;42.872;25.314;2022-11-20T09:05:04;96475.16;;;14.81;58.74
42771;BME280;28426;42.872;25.314;2022-11-20T09:07:35;96473.78;;;14.71;58.85
42771;BME280;28426;42.872;25.314;2022-11-20T09:10:06;96470.00;;;14.60;59.17
42771;BME280;28426;42.872;25.314;2022-11-20T09:12:57;96467.84;;;14.50;59.16
42771;BME280;28426;42.872;25.314;2022-11-20T09:15:31;96471.06;;;14.41;59.31
42771;BME280;28426;42.872;25.314;2022-11-20T09:18:03;96467.50;;;14.28;59.33
42771;BME280;28426;42.872;25.314;2022-11-20T09:20:33;96466.84;;;14.14;59.77
42771;BME280;28426;42.872;25.314;2022-11-20T09:23:04;96448.78;;;14.03;59.98
42771;BME280;28426;42.872;25.314;2022-11-20T09:25:34;96451.41;;;13.91;60.25
42771;BME280;28426;42.872;25.314;2022-11-20T09:28:05;96452.19;;;13.54;58.85
42771;BME280;28426;42.872;25.314;2022-11-20T09:30:38;96455.00;;;12.69;58.54
42771;BME280;28426;42.872;25.314;2022-11-20T09:33:09;96455.47;;;11.93;61.44
42771;BME280;28426;42.872;25.314;2022-11-20T09:35:39;96439.78;;;11.37;65.77
42771;BME280;28426;42.872;25.314;2022-11-20T09:38:11;96442.84;;;10.94;69.06
42771;BME280;28426;42.872;25.314;2022-11-20T09:40:47;96441.38;;;10.71;71.09
42771;BME280;28426;42.872;25.314;2022-11-20T09:43:27;96447.47;;;10.51;73.60
42771;BME280;28426;42.872;25.314;2022-11-20T09:46:17;96440.63;;;10.42;76.00
42771;BME280;28426;42.872;25.314;2022-11-20T09:49:04;96435.78;;;10.52;76.36
42771;BME280;28426;42.872;25.314;2022-11-20T09:51:46;96428.41;;;10.68;76.44
42771;BME280;28426;42.872;25.314;2022-11-20T09:54:25;96422.50;;;10.79;76.47
42771;BME280;28426;42.872;25.314;2022-11-20T09:56:59;96424.75;;;10.89;76.89
42771;BME280;28426;42.872;25.314;2022-11-20T09:59:36;96413.06;;;10.97;76.51
42771;BME280;28426;42.872;25.314;2022-11-20T10:02:25;96398.88;;;11.03;76.61
42771;BME280;28426;42.872;25.314;2022-11-20T10:05:02;96410.81;;;11.14;76.05
42771;BME280;28426;42.872;25.314;2022-11-20T10:07:38;96397.66;;;11.26;76.44
42771;BME280;28426;42.872;25.314;2022-11-20T10:10:19;96389.41;;;11.41;75.91
42771;BME280;28426;42.872;25.314;2022-11-20T10:13:02;96391.66;;;11.51;75.95
42771;BME280;28426;42.872;25.314;2022-11-20T10:15:43;96391.63;;;11.71;75.78
42771;BME280;28426;42.872;25.314;2022-11-20T10:18:27;96385.00;;;11.87;75.31
42771;BME280;28426;42.872;25.314;2022-11-20T10:21:09;96377.34;;;11.98;74.98
42771;BME280;28426;42.872;25.314;2022-11-20T10:24:01;96383.69;;;12.03;74.08
42771;BME280;28426;42.872;25.314;2022-11-20T10:26:44;96377.31;;;12.11;75.82
42771;BME280;28426;42.872;25.314;2022-11-20T10:29:19;96373.28;;;12.34;73.89
42771;BME280;28426;42.872;25.314;2022-11-20T10:31:56;96367.19;;;12.59;72.84
42771;BME280;28426;42.872;25.314;2022-11-20T10:34:33;96369.03;;;12.84;71.66
42771;BME280;28426;42.872;25.314;2022-11-20T10:37:11;96368.44;;;13.07;70.63
42771;BME280;28426;42.872;25.314;2022-11-20T10:39:51;96379.00;;;13.28;70.14
42771;BME280;28426;42.872;25.314;2022-11-20T10:42:30;96379.63;;;13.49;69.76
42771;BME280;28426;42.872;25.314;2022-11-20T10:45:29;96382.94;;;13.69;69.24
42771;BME280;28426;42.872;25.314;2022-11-20T10:48:11;96381.31;;;13.87;68.05
42771;BME280;28426;42.872;25.314;2022-11-20T10:51:18;96372.50;;;13.98;67.55
42771;BME280;28426;42.872;25.314;2022-11-20T10:53:58;96373.97;;;14.13;67.64
42771;BME280;28426;42.872;25.314;2022-11-20T10:56:40;96373.34;;;14.30;67.34
42771;BME280;28426;42.872;25.314;2022-11-20T10:59:38;96366.91;;;14.49;66.22
42771;BME280;28426;42.872;25.314;2022-11-20T11:02:19;96368.22;;;14.71;66.02
42771;BME280;28426;42.872;25.314;2022-11-20T11:04:50;96358.72;;;14.87;65.35
42771;BME280;28426;42.872;25.314;2022-11-20T11:07:27;96356.16;;;15.04;65.08
42771;BME280;28426;42.872;25.314;2022-11-20T11:10:00;96351.84;;;15.15;64.11
42771;BME280;28426;42.872;25.314;2022-11-20T11:12:31;96354.09;;;15.18;63.44
42771;BME280;28426;42.872;25.314;2022-11-20T11:15:02;96345.34;;;15.23;63.14
42771;BME280;28426;42.872;25.314;2022-11-20T11:17:33;96350.59;;;15.29;63.05
42771;BME280;28426;42.872;25.314;2022-11-20T11:20:16;96354.41;;;15.34;60.81
42771;BME280;28426;42.872;25.314;2022-11-20T11:22:51;96347.91;;;15.29;61.53
42771;BME280;28426;42.872;25.314;2022-11-20T11:25:25;96339.97;;;15.23;61.58
42771;BME280;28426;42.872;25.314;2022-11-20T11:27:58;96343.34;;;15.18;62.19
42771;BME280;28426;42.872;25.314;2022-11-20T11:30:41;96339.47;;;15.14;61.54
42771;BME280;28426;42.872;25.314;2022-11-20T11:33:19;96343.56;;;15.04;61.40
42771;BME280;28426;42.872;25.314;2022-11-20T11:35:51;96365.03;;;14.93;61.54
42771;BME280;28426;42.872;25.314;2022-11-20T11:38:34;96361.50;;;14.80;61.67
42771;BME280;28426;42.872;25.314;2022-11-20T11:41:09;96363.69;;;14.71;61.86
42771;BME280;28426;42.872;25.314;2022-11-20T11:43:51;96368.22;;;14.59;61.86
42771;BME280;28426;42.872;25.314;2022-11-20T11:46:35;96358.84;;;14.49;62.64
42771;BME280;28426;42.872;25.314;2022-11-20T11:49:16;96364.09;;;14.44;62.35
42771;BME280;28426;42.872;25.314;2022-11-20T11:51:58;96352.59;;;14.37;62.76
42771;BME280;28426;42.872;25.314;2022-11-20T11:54:36;96360.53;;;14.32;62.83
42771;BME280;28426;42.872;25.314;2022-11-20T11:57:12;96364.34;;;14.24;63.10
42771;BME280;28426;42.872;25.314;2022-11-20T11:59:54;96370.38;;;14.19;62.98
42771;BME280;28426;42.872;25.314;2022-11-20T12:02:36;96376.19;;;14.16;63.70
42771;BME280;28426;42.872;25.314;2022-11-20T12:05:17;96389.63;;;14.16;63.43
42771;BME280;28426;42.872;25.314;2022-11-20T12:07:53;96387.63;;;14.11;63.52
42771;BME280;28426;42.872;25.314;2022-11-20T12:10:39;96393.06;;;14.05;63.46
42771;BME280;28426;42.872;25.314;2022-11-20T12:13:21;96421.38;;;14.01;63.47
42771;BME280;28426;42.872;25.314;2022-11-20T12:15:56;96428.66;;;13.93;63.63
42771;BME280;28426;42.872;25.314;2022-11-20T12:18:28;96426.88;;;13.87;64.04
42771;BME280;28426;42.872;25.314;2022-11-20T12:21:10;96441.34;;;13.86;64.25
42771;BME280;28426;42.872;25.314;2022-11-20T12:23:53;96438.75;;;13.79;63.67
42771;BME280;28426;42.872;25.314;2022-11-20T12:26:35;96450.13;;;13.75;63.42
42771;BME280;28426;42.872;25.314;2022-11-20T12:29:18;96433.28;;;13.67;63.79
42771;BME280;28426;42.872;25.314;2022-11-20T12:32:10;96422.38;;;13.62;64.24
42771;BME280;28426;42.872;25.314;2022-11-20T12:34:57;96425.75;;;13.57;63.98
42771;BME280;28426;42.872;25.314;2022-11-20T12:37:45;96428.28;;;13.52;64.23
42771;BME280;28426;42.872;25.314;2022-11-20T12:40:30;96429.53;;;13.50;64.45
42771;BME280;28426;42.872;25.314;2022-11-20T12:43:15;96436.13;;;13.47;64.71
42771;BME280;28426;42.872;25.314;2022-11-20T12:46:13;96432.00;;;13.44;64.85
42771;BME280;28426;42.872;25.314;2022-11-20T12:49:17;96441.56;;;13.40;65.37
42771;BME280;28426;42.872;25.314;2022-11-20T12:52:19;96445.69;;;13.36;65.67
42771;BME280;28426;42.872;25.314;2022-11-20T12:55:21;96433.78;;;13.32;66.49
42771;BME280;28426;42.872;25.314;2022-11-20T12:57:58;96444.94;;;13.29;66.35
42771;BME280;28426;42.872;25.314;2022-11-20T13:00:37;96436.72;;;13.24;66.51
42771;BME280;28426;42.872;25.314;2022-11-20T13:03:44;96441.72;;;13.20;67.18
42771;BME280;28426;42.872;25.314;2022-11-20T13:06:18;96447.88;;;13.20;67.87
42771;BME280;28426;42.872;25.314;2022-11-20T13:08:53;96439.03;;;13.20;67.91
42771;BME280;28426;42.872;25.314;2022-11-20T13:11:27;96425.03;;;13.18;67.77
42771;BME280;28426;42.872;25.314;2022-11-20T13:14:11;96419.06;;;13.16;67.94
42771;BME280;28426;42.872;25.314;2022-11-20T13:16:51;96452.91;;;13.10;68.32
42771;BME280;28426;42.872;25.314;2022-11-20T13:19:31;96443.25;;;13.09;68.85
42771;BME280;28426;42.872;25.314;2022-11-20T13:22:02;96431.91;;;13.07;69.05
42771;BME280;28426;42.872;25.314;2022-11-20T13:24:32;96447.38;;;13.05;69.14
42771;BME280;28426;42.872;25.314;2022-11-20T13:27:20;96445.13;;;13.02;69.21